Time;durP1;ratioP1;P1;durP2;ratioP2;P2;SDS_P1;SDS_P2;PMS_P1;PMS_P2;Temp;Humidity;BMP_temperature;BMP_pressure;BME280_temperature;BME280_humidity;BME280_pressure;Samples;Min_cycle;Max_cycle;Signal;HPM_P1;HPM_P2
2021/05/11 00:01:41;;;;;;;7.90;2.47;;;17.60;96.00;;;;;;4958317;29;20453;-82
2021/05/11 00:04:07;;;;;;;3.40;2.60;;;17.50;95.80;;;;;;4940808;29;20431;-83
2021/05/11 00:06:33;;;;;;;10.40;3.57;;;17.50;95.80;;;;;;4940620;29;20469;-82
2021/05/11 00:08:58;;;;;;;4.27;2.67;;;17.50;95.30;;;;;;4940947;29;20435;-82
2021/05/11 00:11:26;;;;;;;4.80;2.77;;;17.50;95.50;;;;;;4941944;29;20184;-82
2021/05/11 00:13:52;;;;;;;5.27;2.80;;;17.50;95.70;;;;;;4942447;29;20199;-82
2021/05/11 00:16:17;;;;;;;4.57;2.43;;;17.50;95.60;;;;;;4942273;29;20433;-82
2021/05/11 00:18:43;;;;;;;3.97;2.80;;;17.40;95.70;;;;;;4942309;29;20671;-82
2021/05/11 00:21:08;;;;;;;7.17;2.80;;;17.40;95.90;;;;;;4942310;29;20222;-82
2021/05/11 00:23:34;;;;;;;6.40;3.80;;;17.40;95.90;;;;;;4940642;29;20196;-83
2021/05/11 00:26:00;;;;;;;8.03;2.70;;;17.40;96.10;;;;;;4941315;29;20175;-82
2021/05/11 00:28:30;;;;;;;8.47;2.67;;;17.30;96.40;;;;;;4941192;29;20172;-82
2021/05/11 00:30:59;;;;;;;7.47;2.60;;;17.30;96.60;;;;;;4941685;29;20182;-82
2021/05/11 00:33:31;;;;;;;6.70;2.90;;;17.20;97.00;;;;;;4944917;29;20471;-82
2021/05/11 00:35:59;;;;;;;4.50;2.70;;;17.20;97.20;;;;;;4921265;29;20435;-82
2021/05/11 00:38:25;;;;;;;6.80;3.00;;;17.20;97.30;;;;;;4933608;29;20497;-82
2021/05/11 00:40:50;;;;;;;8.63;3.40;;;17.10;97.30;;;;;;4939932;29;20989;-82
2021/05/11 00:43:18;;;;;;;6.60;3.40;;;17.10;97.30;;;;;;4927736;29;20283;-82
2021/05/11 00:45:44;;;;;;;5.37;3.03;;;17.10;97.30;;;;;;4920685;29;20271;-82
2021/05/11 00:48:10;;;;;;;7.93;3.00;;;17.10;97.30;;;;;;4937985;29;20452;-82
2021/05/11 00:50:35;;;;;;;5.50;3.27;;;17.10;97.30;;;;;;4921699;29;20199;-81
2021/05/11 00:53:01;;;;;;;7.53;3.40;;;17.00;97.30;;;;;;4932308;29;20289;-82
2021/05/11 00:55:27;;;;;;;7.83;3.70;;;17.00;97.30;;;;;;4942018;29;20191;-82
2021/05/11 00:57:52;;;;;;;8.00;3.43;;;17.00;97.30;;;;;;4941968;29;20891;-82
2021/05/11 01:00:19;;;;;;;6.83;4.13;;;16.90;97.30;;;;;;4941924;29;20463;-82
2021/05/11 01:02:47;;;;;;;4.50;3.30;;;16.80;97.30;;;;;;4940522;29;20230;-82
2021/05/11 01:05:13;;;;;;;8.33;4.63;;;16.80;97.30;;;;;;4940929;29;20417;-82
2021/05/11 01:07:41;;;;;;;4.30;3.70;;;16.80;97.30;;;;;;4941056;29;20411;-82
2021/05/11 01:10:07;;;;;;;6.80;4.20;;;16.80;97.30;;;;;;4940532;29;20430;-82
2021/05/11 01:12:32;;;;;;;5.40;4.23;;;16.70;97.30;;;;;;4940650;29;20626;-82
2021/05/11 01:14:58;;;;;;;7.07;4.67;;;16.70;97.30;;;;;;4939619;29;20187;-82
2021/05/11 01:17:28;;;;;;;8.83;4.43;;;16.70;97.30;;;;;;4939675;29;20179;-82
2021/05/11 01:20:04;;;;;;;12.40;4.93;;;16.60;97.30;;;;;;4939284;29;20207;-82
2021/05/11 01:23:02;;;;;;;7.10;4.63;;;16.60;97.30;;;;;;4950731;29;20445;-83
2021/05/11 01:25:30;;;;;;;6.10;4.63;;;16.50;97.30;;;;;;4920211;29;20503;-82
2021/05/11 01:28:35;;;;;;;7.70;4.60;;;16.40;97.30;;;;;;4920367;29;20416;-82
2021/05/11 01:45:02;;;;;;;6.27;4.83;;;16.30;97.30;;;;;;4937931;29;20490;-82
2021/05/11 01:48:08;;;;;;;17.90;5.77;;;16.30;97.30;;;;;;4937955;29;20415;-82
2021/05/11 01:50:35;;;;;;;10.17;5.27;;;16.30;97.30;;;;;;4929675;29;20430;-82
2021/05/11 02:22:42;;;;;;;12.57;6.70;;;16.10;97.30;;;;;;4954579;28;20548;-82
2021/05/11 02:25:09;;;;;;;12.30;5.90;;;16.10;97.30;;;;;;4937727;29;20419;-82
2021/05/11 02:27:37;;;;;;;7.73;5.20;;;16.10;97.30;;;;;;4921177;29;20451;-82
2021/05/11 02:30:10;;;;;;;6.97;5.23;;;16.00;97.30;;;;;;4920914;29;20439;-82
2021/05/11 02:32:37;;;;;;;13.37;6.03;;;16.00;97.30;;;;;;4947506;28;20443;-82
2021/05/11 02:35:04;;;;;;;7.80;5.60;;;16.00;97.30;;;;;;4954195;29;20430;-82
2021/05/11 02:37:29;;;;;;;8.30;5.17;;;16.00;97.30;;;;;;4954331;29;20426;-82
2021/05/11 02:39:57;;;;;;;9.57;4.87;;;16.00;97.30;;;;;;4953957;29;20554;-82
2021/05/11 02:42:22;;;;;;;7.80;5.43;;;16.00;97.30;;;;;;4954596;29;20205;-82
2021/05/11 02:44:50;;;;;;;7.93;5.37;;;15.90;97.30;;;;;;4955678;29;20415;-82
2021/05/11 02:47:18;;;;;;;10.00;5.00;;;15.90;97.30;;;;;;4954571;29;20171;-82
2021/05/11 02:49:46;;;;;;;8.40;4.87;;;15.90;97.30;;;;;;4954645;29;20438;-82
2021/05/11 02:52:12;;;;;;;6.50;5.37;;;15.90;97.30;;;;;;4953224;29;20437;-82
2021/05/11 02:54:39;;;;;;;5.90;4.67;;;15.90;97.30;;;;;;4956118;29;20415;-82
2021/05/11 02:57:13;;;;;;;6.67;4.50;;;15.90;97.30;;;;;;4955994;29;20423;-82
2021/05/11 02:59:39;;;;;;;7.07;5.20;;;15.90;97.30;;;;;;4955679;29;20411;-82
2021/05/11 03:02:08;;;;;;;10.70;5.40;;;15.90;97.30;;;;;;4951547;29;20804;-82
2021/05/11 03:04:34;;;;;;;6.67;4.60;;;15.90;97.30;;;;;;4920479;29;20420;-82
2021/05/11 03:06:59;;;;;;;10.33;4.60;;;15.80;97.30;;;;;;4938047;29;20404;-82
2021/05/11 03:09:26;;;;;;;7.07;4.60;;;15.80;97.30;;;;;;4924234;29;20187;-82
2021/05/11 03:11:52;;;;;;;6.50;4.30;;;15.80;97.30;;;;;;4941056;29;20175;-82
2021/05/11 03:14:18;;;;;;;9.30;5.43;;;15.90;97.30;;;;;;4941415;29;20440;-82
2021/05/11 03:16:44;;;;;;;6.70;4.93;;;15.90;97.30;;;;;;4935889;29;20481;-82
2021/05/11 03:19:09;;;;;;;6.57;4.60;;;15.90;97.30;;;;;;4957886;29;20186;-82
2021/05/11 03:21:35;;;;;;;6.40;5.00;;;15.80;97.30;;;;;;4957314;29;20461;-82
2021/05/11 03:24:01;;;;;;;10.83;4.90;;;15.70;97.30;;;;;;4959032;29;20770;-82
2021/05/11 03:26:27;;;;;;;8.83;4.80;;;15.70;97.30;;;;;;4958964;29;20685;-82
2021/05/11 03:28:52;;;;;;;7.10;4.90;;;15.70;97.30;;;;;;4958132;29;20490;-82
2021/05/11 03:31:17;;;;;;;8.50;5.60;;;15.60;97.30;;;;;;4957752;29;20197;-82
2021/05/11 03:33:43;;;;;;;6.40;5.43;;;15.50;97.30;;;;;;4951099;29;20239;-82
2021/05/11 03:36:09;;;;;;;6.37;4.90;;;15.50;97.30;;;;;;4941445;29;20207;-82
2021/05/11 03:38:34;;;;;;;8.07;5.40;;;15.50;97.30;;;;;;4924100;29;20184;-82
2021/05/11 03:41:00;;;;;;;6.50;5.10;;;15.50;97.30;;;;;;4942203;29;20212;-82
2021/05/11 03:43:30;;;;;;;7.70;5.07;;;15.60;97.30;;;;;;4943802;29;20235;-82
2021/05/11 03:46:03;;;;;;;6.43;4.90;;;15.60;97.30;;;;;;4940904;29;20161;-82
2021/05/11 03:48:31;;;;;;;7.63;5.00;;;15.60;97.30;;;;;;4924009;29;20447;-82
2021/05/11 03:51:00;;;;;;;5.40;4.37;;;15.60;97.30;;;;;;4924015;29;20424;-82
2021/05/11 03:53:25;;;;;;;6.90;4.60;;;15.60;97.30;;;;;;4959605;29;20435;-82
2021/05/11 03:55:51;;;;;;;6.10;4.40;;;15.70;97.30;;;;;;4958280;29;20493;-82
2021/05/11 03:58:17;;;;;;;7.40;5.07;;;15.70;97.30;;;;;;4957573;29;20206;-83
2021/05/11 04:00:42;;;;;;;9.07;5.03;;;15.70;97.30;;;;;;4957457;29;20195;-82
2021/05/11 04:03:10;;;;;;;6.10;4.90;;;15.60;97.30;;;;;;4940092;29;20339;-82
2021/05/11 04:05:40;;;;;;;6.53;5.00;;;15.60;97.30;;;;;;4922363;29;20206;-82
2021/05/11 04:08:08;;;;;;;7.43;4.67;;;15.70;97.30;;;;;;4922470;29;20408;-82
2021/05/11 04:10:42;;;;;;;8.47;4.70;;;15.60;97.30;;;;;;4922511;29;20970;-82
2021/05/11 04:13:36;;;;;;;6.57;4.87;;;15.60;97.30;;;;;;4953839;29;20579;-82
2021/05/11 04:16:22;;;;;;;25.13;5.60;;;15.60;97.30;;;;;;4959587;28;20513;-82
2021/05/11 04:18:48;;;;;;;9.70;5.00;;;15.60;97.30;;;;;;4957484;28;20458;-82
2021/05/11 04:21:13;;;;;;;6.90;4.73;;;15.60;97.30;;;;;;4954158;29;20880;-83
2021/05/11 04:23:39;;;;;;;6.93;5.20;;;15.70;97.30;;;;;;4923640;29;20448;-82
2021/05/11 04:26:06;;;;;;;12.37;5.10;;;15.70;97.30;;;;;;4922753;29;20259;-82
2021/05/11 04:28:32;;;;;;;7.93;5.30;;;15.80;97.30;;;;;;4955972;29;20601;-82
2021/05/11 04:30:58;;;;;;;8.83;5.33;;;15.80;97.30;;;;;;4958041;29;20477;-82
2021/05/11 04:33:26;;;;;;;12.30;5.50;;;15.80;97.30;;;;;;4944154;29;20278;-82
2021/05/11 04:35:51;;;;;;;7.00;4.60;;;15.80;97.30;;;;;;4940100;29;20178;-82
2021/05/11 04:38:19;;;;;;;11.83;6.20;;;15.80;97.30;;;;;;4921548;29;21002;-82
2021/05/11 04:40:44;;;;;;;7.73;4.93;;;15.80;97.30;;;;;;4921954;29;20208;-82
2021/05/11 04:43:10;;;;;;;8.70;5.23;;;15.80;97.30;;;;;;4921361;29;20588;-82
2021/05/11 04:45:36;;;;;;;9.50;5.20;;;15.80;97.30;;;;;;4938310;29;20172;-82
2021/05/11 04:48:02;;;;;;;8.90;5.30;;;15.90;97.30;;;;;;4921756;29;20543;-83
2021/05/11 04:50:28;;;;;;;11.10;5.60;;;15.90;97.30;;;;;;4938913;29;20195;-82
2021/05/11 04:52:59;;;;;;;11.00;5.03;;;15.90;97.30;;;;;;4921641;29;20522;-82
2021/05/11 04:55:28;;;;;;;9.93;6.03;;;15.90;97.30;;;;;;4923097;29;20415;-82
2021/05/11 04:57:53;;;;;;;13.77;5.47;;;16.00;97.30;;;;;;4923549;29;20424;-82
2021/05/11 05:00:19;;;;;;;8.73;5.73;;;16.00;97.30;;;;;;4940113;29;21029;-82
2021/05/11 05:02:46;;;;;;;8.50;4.93;;;16.00;97.30;;;;;;4921501;29;20200;-82
2021/05/11 05:05:13;;;;;;;9.80;5.50;;;16.00;97.30;;;;;;4939552;29;20172;-82
2021/05/11 05:07:39;;;;;;;9.73;5.83;;;16.00;97.30;;;;;;4939245;29;20422;-82
2021/05/11 05:10:09;;;;;;;16.63;6.23;;;16.00;97.30;;;;;;4939808;29;20899;-82
2021/05/11 05:12:35;;;;;;;15.60;5.60;;;16.00;97.30;;;;;;4922177;29;20473;-82
2021/05/11 05:15:01;;;;;;;7.83;5.87;;;16.10;97.30;;;;;;4922465;29;20456;-82
2021/05/11 05:17:26;;;;;;;9.30;5.77;;;16.10;97.30;;;;;;4922304;29;20432;-82
2021/05/11 05:19:52;;;;;;;8.80;5.93;;;16.10;97.30;;;;;;4921337;29;20435;-82
2021/05/11 05:22:18;;;;;;;9.97;6.60;;;16.20;97.30;;;;;;4921522;29;20176;-82
2021/05/11 05:24:56;;;;;;;11.73;6.77;;;16.20;97.30;;;;;;4938913;29;20184;-82
2021/05/11 05:29:48;;;;;;;12.47;6.03;;;16.30;97.30;;;;;;4938486;29;21181;-82
2021/05/11 05:32:13;;;;;;;10.40;6.53;;;16.40;97.30;;;;;;4921681;29;20235;-81
2021/05/11 05:34:39;;;;;;;10.07;6.90;;;16.40;97.30;;;;;;4922162;29;20381;-82
2021/05/11 05:37:05;;;;;;;10.67;6.90;;;16.50;97.30;;;;;;4975129;23;20638;-78
2021/05/11 05:39:35;;;;;;;10.90;7.10;;;16.50;97.30;;;;;;4958345;28;20464;-81
2021/05/11 05:42:01;;;;;;;8.93;7.30;;;16.50;97.30;;;;;;4947415;28;20327;-78
2021/05/11 05:44:27;;;;;;;12.00;7.03;;;16.50;97.30;;;;;;4938613;29;20423;-79
2021/05/11 05:46:52;;;;;;;17.40;7.90;;;16.60;97.30;;;;;;4942188;28;20968;-79
2021/05/11 05:49:19;;;;;;;11.80;6.90;;;16.70;97.30;;;;;;4953980;28;20172;-80
2021/05/11 05:51:48;;;;;;;10.00;7.20;;;16.80;97.30;;;;;;4951982;28;20692;-80
2021/05/11 05:54:13;;;;;;;9.73;6.90;;;17.00;97.30;;;;;;4950917;29;20429;-78
2021/05/11 05:56:39;;;;;;;9.93;6.80;;;17.00;97.30;;;;;;4937443;29;20513;-78
2021/05/11 05:59:05;;;;;;;9.33;6.40;;;17.10;97.30;;;;;;4954455;29;20540;-80
2021/05/11 06:01:30;;;;;;;9.20;6.63;;;17.10;97.30;;;;;;4929902;29;20214;-77
2021/05/11 06:04:13;;;;;;;7.50;6.30;;;17.00;97.30;;;;;;4930816;28;20186;-77
2021/05/11 06:06:42;;;;;;;10.00;6.00;;;17.10;97.30;;;;;;4939233;28;20175;-77
2021/05/11 06:09:16;;;;;;;7.53;6.00;;;17.20;97.30;;;;;;4955893;28;20422;-78
2021/05/11 06:14:16;;;;;;;9.23;6.50;;;17.20;97.30;;;;;;4973471;28;20450;-76
2021/05/11 06:19:26;;;;;;;14.70;6.40;;;17.10;97.30;;;;;;4972352;28;20485;-76
2021/05/11 06:21:51;;;;;;;10.00;6.40;;;17.10;97.30;;;;;;4936712;29;20553;-77
2021/05/11 06:24:17;;;;;;;8.93;5.63;;;17.00;97.30;;;;;;4941453;29;20190;-77
2021/05/11 06:26:45;;;;;;;9.47;5.47;;;17.10;97.30;;;;;;4936532;29;20249;-77
2021/05/11 06:29:11;;;;;;;8.97;6.20;;;17.10;97.30;;;;;;4937294;29;20187;-78
2021/05/11 06:31:37;;;;;;;12.20;6.60;;;17.20;97.30;;;;;;4942617;28;20448;-78
2021/05/11 06:34:04;;;;;;;13.43;6.83;;;17.20;97.30;;;;;;4945641;29;20521;-77
2021/05/11 06:36:29;;;;;;;9.47;5.80;;;17.30;97.30;;;;;;4941994;28;20217;-76
2021/05/11 06:38:55;;;;;;;9.53;6.17;;;17.40;97.30;;;;;;4955374;28;20419;-76
2021/05/11 06:41:21;;;;;;;12.27;6.23;;;17.40;97.30;;;;;;4953914;28;20206;-75
2021/05/11 06:43:47;;;;;;;7.23;5.50;;;17.40;97.30;;;;;;4952265;29;20199;-77
2021/05/11 06:53:44;;;;;;;7.63;5.77;;;17.60;97.30;;;;;;4935733;29;20184;-75
2021/05/11 06:56:12;;;;;;;24.73;6.57;;;17.60;97.30;;;;;;4922870;29;20207;-77
2021/05/11 06:58:38;;;;;;;9.97;5.37;;;17.70;97.30;;;;;;4935233;29;20509;-75
2021/05/11 07:01:04;;;;;;;9.10;5.17;;;17.70;97.30;;;;;;4927743;29;20561;-76
2021/05/11 07:03:30;;;;;;;13.80;4.90;;;17.70;97.30;;;;;;4938793;29;20179;-75
2021/05/11 07:05:56;;;;;;;8.83;5.33;;;17.60;97.30;;;;;;4920102;29;20435;-76
2021/05/11 07:10:53;;;;;;;7.77;5.00;;;17.60;97.30;;;;;;4947879;29;20444;-75
2021/05/11 07:13:19;;;;;;;8.13;5.30;;;17.70;97.30;;;;;;4933807;28;20197;-70
2021/05/11 07:15:45;;;;;;;9.27;5.90;;;17.70;97.30;;;;;;4937541;28;20431;-70
2021/05/11 07:18:16;;;;;;;8.83;5.50;;;17.70;97.30;;;;;;4952018;28;20171;-71
2021/05/11 07:20:50;;;;;;;7.73;5.53;;;17.70;97.30;;;;;;4950959;28;20473;-73
2021/05/11 07:23:25;;;;;;;10.03;5.57;;;17.90;97.30;;;;;;4940816;28;20411;-73
2021/05/11 07:31:11;;;;;;;6.57;5.13;;;18.20;97.30;;;;;;4961855;28;20465;-80
2021/05/11 07:36:05;;;;;;;7.40;5.53;;;18.00;97.30;;;;;;4935709;29;20415;-75
2021/05/11 07:38:31;;;;;;;7.87;5.80;;;18.00;97.30;;;;;;4935866;29;20519;-76
2021/05/11 07:40:57;;;;;;;7.93;5.10;;;17.90;97.30;;;;;;4943512;29;20561;-75
2021/05/11 07:43:24;;;;;;;7.93;6.00;;;17.80;97.30;;;;;;4942881;29;20423;-76
2021/05/11 08:04:27;;;;;;;8.70;6.07;;;18.40;97.30;;;;;;4951803;29;20421;-75
2021/05/11 08:15:02;;;;;;;9.33;6.20;;;18.90;97.30;;;;;;4936718;29;20489;-75
2021/05/11 08:17:31;;;;;;;8.40;6.67;;;18.90;97.30;;;;;;4940156;29;20416;-74
2021/05/11 08:20:07;;;;;;;8.50;6.20;;;18.90;97.30;;;;;;4939524;29;20419;-74
2021/05/11 08:27:47;;;;;;;12.93;6.60;;;18.90;97.30;;;;;;4946452;29;20250;-75
2021/05/11 08:30:15;;;;;;;10.20;6.60;;;19.00;97.30;;;;;;4926167;29;20470;-75
2021/05/11 08:32:41;;;;;;;8.30;6.47;;;19.10;97.30;;;;;;4920929;29;20958;-75
2021/05/11 08:35:07;;;;;;;8.40;6.30;;;19.30;97.30;;;;;;4935082;29;20439;-76
2021/05/11 08:37:34;;;;;;;7.10;6.10;;;19.50;97.30;;;;;;4919371;29;20876;-75
2021/05/11 08:39:59;;;;;;;7.80;5.90;;;19.60;97.30;;;;;;4930860;29;20513;-74
2021/05/11 08:42:25;;;;;;;8.70;6.87;;;19.60;96.60;;;;;;4921092;29;20526;-75
2021/05/11 08:44:51;;;;;;;11.00;6.13;;;19.50;96.40;;;;;;4918968;29;20176;-72
2021/05/11 08:47:19;;;;;;;8.10;6.13;;;19.50;96.20;;;;;;4918669;29;20332;-73
2021/05/11 08:49:45;;;;;;;9.50;6.17;;;19.80;96.30;;;;;;4953395;28;20666;-75
2021/05/11 08:55:28;;;;;;;8.53;6.57;;;20.10;95.40;;;;;;4933126;29;20422;-76
2021/05/11 09:06:10;;;;;;;7.77;6.27;;;20.70;93.90;;;;;;4935564;29;20171;-75
2021/05/11 09:09:07;;;;;;;10.87;7.40;;;20.90;93.70;;;;;;4918804;29;20574;-74
2021/05/11 09:23:32;;;;;;;10.97;7.10;;;20.90;93.60;;;;;;4935010;29;20414;-73
2021/05/11 09:28:43;;;;;;;7.60;6.37;;;20.80;93.60;;;;;;4876869;29;20425;-73
2021/05/11 09:31:37;;;;;;;11.87;7.30;;;20.90;92.80;;;;;;4924704;29;20454;-76
2021/05/11 09:34:21;;;;;;;7.90;6.00;;;21.00;92.50;;;;;;4935618;29;20443;-74
2021/05/11 09:45:05;;;;;;;17.57;7.03;;;21.00;93.20;;;;;;4919473;29;20431;-77
2021/05/11 09:56:27;;;;;;;9.43;6.63;;;21.60;91.20;;;;;;4936204;29;20467;-79
2021/05/11 10:48:29;;;;;;;11.20;7.60;;;23.40;89.80;;;;;;4934699;29;21113;-72
2021/05/11 10:51:26;;;;;;;9.60;7.40;;;23.40;88.80;;;;;;4915353;29;20455;-75
2021/05/11 10:54:09;;;;;;;11.20;7.00;;;23.40;89.90;;;;;;4931889;29;20423;-75
2021/05/11 10:56:40;;;;;;;9.93;7.70;;;23.40;89.30;;;;;;4916954;29;20438;-75
2021/05/11 11:01:36;;;;;;;9.93;7.73;;;23.30;88.10;;;;;;4933584;29;20534;-73
2021/05/11 11:04:17;;;;;;;12.83;8.17;;;23.30;88.50;;;;;;4947337;29;20415;-73
2021/05/11 11:06:59;;;;;;;11.20;7.40;;;23.40;88.50;;;;;;4923906;29;20442;-79
2021/05/11 11:10:00;;;;;;;15.53;8.00;;;23.40;89.20;;;;;;4924088;29;20482;-77
2021/05/11 11:12:36;;;;;;;12.90;7.80;;;23.40;88.60;;;;;;4888015;29;20519;-71
2021/05/11 11:15:24;;;;;;;16.80;8.30;;;23.40;88.40;;;;;;4931807;29;20996;-77
2021/05/11 11:17:54;;;;;;;11.17;7.33;;;23.50;87.50;;;;;;4920014;29;20440;-78
2021/05/11 11:20:27;;;;;;;13.63;8.10;;;23.50;88.30;;;;;;4923713;29;20562;-78
2021/05/11 11:23:32;;;;;;;13.57;8.73;;;23.60;88.30;;;;;;4912608;29;20424;-76
2021/05/11 11:26:11;;;;;;;16.33;8.37;;;23.50;87.30;;;;;;4937065;29;20468;-72
2021/05/11 11:28:37;;;;;;;11.17;8.40;;;23.60;89.80;;;;;;4917969;29;20450;-79
2021/05/11 11:31:21;;;;;;;19.50;8.43;;;23.60;89.60;;;;;;4929802;29;20504;-77
2021/05/11 11:33:48;;;;;;;10.47;8.23;;;23.60;88.50;;;;;;4925844;29;20438;-75
2021/05/11 11:36:40;;;;;;;15.47;8.80;;;23.60;88.30;;;;;;4933131;29;20431;-77
2021/05/11 11:39:20;;;;;;;12.13;7.90;;;23.50;88.40;;;;;;4938304;29;20411;-76
2021/05/11 11:41:47;;;;;;;14.23;8.60;;;23.50;89.20;;;;;;4949352;29;20477;-75
2021/05/11 11:44:15;;;;;;;13.43;8.90;;;23.50;88.80;;;;;;4933205;29;20427;-75
2021/05/11 11:46:41;;;;;;;19.63;8.10;;;23.50;88.70;;;;;;4931676;29;21076;-76
2021/05/11 11:49:11;;;;;;;11.67;8.40;;;23.50;89.10;;;;;;4932305;29;20431;-74
2021/05/11 11:51:37;;;;;;;10.67;8.30;;;23.60;86.90;;;;;;4921158;29;21049;-73
2021/05/11 11:54:23;;;;;;;13.37;8.90;;;23.80;86.90;;;;;;4919876;29;20442;-75
2021/05/11 11:57:45;;;;;;;12.70;9.20;;;23.90;87.30;;;;;;4938467;29;20437;-73
2021/05/11 11:59:36;;;;;;;13.30;9.40;;;24.10;87.00;;;;;;4949873;29;20431;-77
2021/05/11 12:02:05;;;;;;;16.03;9.77;;;24.50;86.10;;;;;;4921109;29;20518;-76
2021/05/11 12:04:31;;;;;;;13.30;9.53;;;24.40;86.60;;;;;;4937537;29;20467;-77
2021/05/11 12:07:03;;;;;;;16.93;9.17;;;24.30;87.10;;;;;;4919399;29;20416;-73
2021/05/11 12:09:28;;;;;;;19.30;9.43;;;24.10;88.00;;;;;;4951901;28;20421;-74
2021/05/11 12:11:54;;;;;;;13.30;9.47;;;24.00;89.10;;;;;;4945849;29;20454;-75
2021/05/11 12:14:20;;;;;;;13.67;10.33;;;23.90;87.60;;;;;;4939212;29;20187;-75
2021/05/11 12:16:47;;;;;;;11.90;8.43;;;24.00;88.60;;;;;;4942543;29;20600;-74
2021/05/11 12:19:18;;;;;;;14.50;9.30;;;24.20;88.00;;;;;;4936051;29;20186;-75
2021/05/11 12:22:01;;;;;;;14.37;9.07;;;24.30;86.90;;;;;;4938670;29;20565;-73
2021/05/11 12:24:29;;;;;;;11.37;8.20;;;24.30;87.40;;;;;;4938108;29;20428;-74
2021/05/11 12:27:21;;;;;;;9.93;7.80;;;24.00;86.20;;;;;;4935693;29;20526;-74
2021/05/11 12:30:10;;;;;;;14.60;8.50;;;23.80;87.00;;;;;;4933673;29;20431;-77
2021/05/11 12:32:37;;;;;;;10.37;7.83;;;23.70;87.30;;;;;;4939156;29;20478;-77
2021/05/11 12:35:05;;;;;;;12.97;8.73;;;23.90;87.70;;;;;;4938374;29;20988;-77
2021/05/11 12:37:47;;;;;;;12.70;7.40;;;24.10;86.70;;;;;;4939379;29;20429;-76
2021/05/11 12:40:28;;;;;;;15.70;7.90;;;24.30;86.70;;;;;;4938013;29;20509;-77
2021/05/11 12:42:59;;;;;;;12.80;7.97;;;24.60;86.30;;;;;;4938209;29;20466;-76
2021/05/11 12:45:26;;;;;;;12.57;7.93;;;24.90;85.40;;;;;;4935995;29;20419;-77
2021/05/11 12:48:03;;;;;;;13.93;8.43;;;25.20;85.20;;;;;;4933895;29;20462;-76
2021/05/11 12:50:33;;;;;;;10.13;7.40;;;25.30;82.40;;;;;;4937134;29;20423;-77
2021/05/11 13:01:26;;;;;;;9.53;7.87;;;26.00;83.50;;;;;;4938065;29;20216;-75
2021/05/11 13:25:58;;;;;;;11.73;7.10;;;24.90;86.50;;;;;;4941841;29;20519;-76
2021/05/11 13:33:33;;;;;;;10.90;6.40;;;24.70;85.00;;;;;;4935619;29;20427;-75
2021/05/11 13:35:59;;;;;;;11.97;6.80;;;24.60;85.30;;;;;;4917207;29;20190;-75
2021/05/11 13:38:24;;;;;;;9.17;6.03;;;24.60;85.60;;;;;;4917841;29;20416;-74
2021/05/11 13:40:51;;;;;;;12.47;5.60;;;24.60;85.10;;;;;;4917779;29;20216;-74
2021/05/11 13:43:18;;;;;;;11.77;6.27;;;24.70;84.80;;;;;;4918086;29;20263;-77
2021/05/11 13:45:43;;;;;;;9.10;5.77;;;24.60;84.70;;;;;;4918255;29;20444;-78
2021/05/11 13:48:22;;;;;;;8.73;6.67;;;24.60;85.40;;;;;;4918573;29;20883;-79
2021/05/11 13:53:21;;;;;;;10.27;6.10;;;24.60;84.80;;;;;;4935760;29;20439;-78
2021/05/11 14:03:44;;;;;;;9.83;8.23;;;24.50;86.20;;;;;;4935946;29;20447;-78
2021/05/11 14:06:10;;;;;;;13.00;7.93;;;24.60;86.20;;;;;;4919257;29;20420;-79
2021/05/11 14:08:36;;;;;;;11.57;7.80;;;24.30;86.20;;;;;;4918864;29;20176;-76
2021/05/11 14:11:02;;;;;;;12.03;8.20;;;24.10;86.80;;;;;;4917934;29;20436;-75
2021/05/11 14:13:27;;;;;;;12.60;8.10;;;24.20;86.50;;;;;;4918091;29;20183;-76
2021/05/11 14:15:53;;;;;;;9.80;6.90;;;24.30;86.90;;;;;;4918936;29;20191;-78
2021/05/11 14:18:18;;;;;;;14.43;7.00;;;24.70;86.80;;;;;;4918783;29;20274;-80
2021/05/11 14:20:44;;;;;;;15.13;7.90;;;24.80;86.20;;;;;;4917704;29;20219;-78
2021/05/11 14:23:09;;;;;;;11.63;8.60;;;25.00;85.70;;;;;;4918382;29;20263;-75
2021/05/11 14:25:35;;;;;;;10.83;8.20;;;25.00;85.80;;;;;;4914879;29;20227;-77
2021/05/11 14:28:05;;;;;;;13.50;8.63;;;24.90;86.40;;;;;;4922666;29;20206;-76
2021/05/11 14:30:31;;;;;;;8.90;7.30;;;24.70;86.50;;;;;;4924019;29;20435;-74
2021/05/11 14:32:57;;;;;;;11.50;6.83;;;24.50;86.40;;;;;;4917705;29;20458;-74
2021/05/11 14:35:22;;;;;;;9.67;7.00;;;24.50;86.90;;;;;;4918611;29;20176;-73
2021/05/11 14:37:48;;;;;;;9.63;6.90;;;24.50;87.90;;;;;;4917264;29;20198;-73
2021/05/11 14:40:16;;;;;;;8.30;6.40;;;24.80;86.70;;;;;;4918373;29;20196;-78
2021/05/11 14:42:42;;;;;;;8.30;6.30;;;25.00;87.20;;;;;;4917404;29;20198;-77
2021/05/11 14:45:08;;;;;;;13.33;7.70;;;24.90;86.40;;;;;;4917002;29;20962;-76
2021/05/11 14:47:33;;;;;;;17.47;7.97;;;24.90;87.00;;;;;;4917473;29;20454;-77
2021/05/11 14:49:59;;;;;;;14.50;8.10;;;24.50;86.20;;;;;;4921079;29;20435;-78
2021/05/11 14:52:26;;;;;;;10.60;7.60;;;24.10;86.80;;;;;;4920874;29;20215;-76
2021/05/11 14:54:52;;;;;;;9.60;7.50;;;23.80;87.70;;;;;;4919422;29;20235;-78
2021/05/11 14:57:18;;;;;;;13.50;7.47;;;23.80;88.40;;;;;;4919822;29;20424;-78
2021/05/11 14:59:44;;;;;;;11.23;7.47;;;23.80;89.00;;;;;;4919906;29;20255;-73
2021/05/11 15:02:12;;;;;;;9.43;7.10;;;23.80;88.70;;;;;;4916816;29;20211;-77
2021/05/11 15:04:38;;;;;;;11.33;7.43;;;23.60;88.80;;;;;;4919362;29;20923;-78
2021/05/11 15:07:04;;;;;;;9.37;7.40;;;23.40;89.40;;;;;;4937243;29;20430;-74
2021/05/11 15:09:29;;;;;;;13.60;7.77;;;23.30;89.80;;;;;;4944123;23;20231;-75
2021/05/11 15:11:55;;;;;;;14.27;8.30;;;23.20;90.40;;;;;;4953723;29;20584;-74
2021/05/11 15:14:20;;;;;;;14.83;9.23;;;23.10;89.90;;;;;;4955769;29;20179;-78
2021/05/11 15:16:47;;;;;;;15.47;7.93;;;23.00;90.30;;;;;;4958067;29;20254;-77
2021/05/11 15:19:13;;;;;;;14.27;8.00;;;22.90;91.00;;;;;;4956344;29;20183;-80
2021/05/11 15:21:39;;;;;;;12.30;8.37;;;22.80;91.70;;;;;;4955786;29;20462;-73
2021/05/11 15:24:06;;;;;;;12.77;9.00;;;22.80;91.20;;;;;;4956027;29;20179;-72
2021/05/11 15:26:34;;;;;;;15.33;8.37;;;22.70;91.90;;;;;;4950834;29;20615;-73
2021/05/11 15:29:00;;;;;;;13.17;8.40;;;22.70;92.00;;;;;;4951501;29;20426;-71
2021/05/11 15:31:30;;;;;;;14.30;8.50;;;22.80;91.50;;;;;;4954005;29;20883;-72
2021/05/11 15:33:56;;;;;;;14.50;8.57;;;22.90;91.40;;;;;;4953738;29;20948;-72
2021/05/11 15:40:01;;;;;;;;;;;;;;;;;;;;;
2021/05/11 15:46:14;;;;;;;23.03;11.90;;;22.50;92.30;;;;;;4934421;29;20442;-70
2021/05/11 15:52:02;;;;;;;18.77;10.53;;;21.70;94.10;;;;;;4964077;28;20491;-72
2021/05/11 15:54:27;;;;;;;12.10;9.93;;;21.50;95.10;;;;;;4966482;28;20521;-74
2021/05/11 16:00:16;;;;;;;13.67;10.30;;;21.10;95.60;;;;;;4948099;28;20186;-72
2021/05/11 16:09:44;;;;;;;17.63;12.10;;;20.70;96.60;;;;;;4951300;23;20523;-83
2021/05/11 16:12:17;;;;;;;20.60;11.60;;;20.60;96.70;;;;;;4958946;28;21003;-84
2021/05/11 16:15:13;;;;;;;15.40;10.93;;;20.50;97.30;;;;;;4962922;28;20446;-85
2021/05/11 16:17:40;;;;;;;16.53;10.77;;;20.50;97.30;;;;;;4977019;28;20413;-85
2021/05/11 16:20:09;;;;;;;16.47;11.37;;;20.50;97.30;;;;;;4958368;28;20438;-85
2021/05/11 16:22:35;;;;;;;16.97;11.60;;;20.40;97.30;;;;;;4962549;28;20429;-84
2021/05/11 16:25:02;;;;;;;17.97;11.60;;;20.40;97.30;;;;;;4986278;28;20417;-84
2021/05/11 16:27:27;;;;;;;18.93;12.37;;;20.30;97.30;;;;;;4959454;28;20441;-84
2021/05/11 16:29:54;;;;;;;15.87;12.00;;;20.20;97.30;;;;;;4961322;28;20477;-84
2021/05/11 16:32:20;;;;;;;15.67;11.00;;;20.00;97.30;;;;;;4977270;28;20185;-84
2021/05/11 16:34:47;;;;;;;16.13;10.57;;;19.90;97.30;;;;;;4980384;28;20410;-83
2021/05/11 16:37:13;;;;;;;18.07;11.80;;;19.90;97.30;;;;;;4982543;28;20182;-81
2021/05/11 16:39:39;;;;;;;17.30;11.90;;;19.80;97.30;;;;;;4963646;28;20951;-84
2021/05/11 16:42:28;;;;;;;15.90;12.10;;;19.80;97.30;;;;;;4972751;28;20204;-83
2021/05/11 16:44:54;;;;;;;22.00;12.40;;;19.70;97.30;;;;;;4975035;28;20798;-84
2021/05/11 16:47:20;;;;;;;23.23;12.50;;;19.60;97.30;;;;;;4964172;28;20418;-84
2021/05/11 16:49:47;;;;;;;18.50;12.13;;;19.50;97.30;;;;;;4960608;28;20434;-83
2021/05/11 16:52:21;;;;;;;16.20;11.60;;;19.50;97.30;;;;;;4960692;28;20254;-83
2021/05/11 16:54:47;;;;;;;18.60;12.73;;;19.40;97.30;;;;;;4952033;28;20455;-83
2021/05/11 16:57:30;;;;;;;23.90;12.87;;;19.40;97.30;;;;;;4976665;28;20457;-83
2021/05/11 17:00:04;;;;;;;18.10;11.90;;;19.30;97.30;;;;;;4980926;28;20194;-83
2021/05/11 17:02:29;;;;;;;18.80;11.83;;;19.20;97.30;;;;;;4961394;28;20493;-84
2021/05/11 17:04:56;;;;;;;18.47;13.10;;;19.20;97.30;;;;;;4958648;28;20714;-84
2021/05/11 17:07:21;;;;;;;21.43;13.10;;;19.20;97.30;;;;;;4970732;28;20233;-84
2021/05/11 17:09:46;;;;;;;23.37;14.00;;;19.00;97.30;;;;;;4955742;28;21000;-86
2021/05/11 17:12:12;;;;;;;27.03;14.60;;;18.90;97.30;;;;;;4959048;28;20237;-86
2021/05/11 17:14:39;;;;;;;19.70;14.13;;;18.70;97.30;;;;;;4959086;28;20179;-86
2021/05/11 17:17:06;;;;;;;19.23;13.73;;;18.50;97.30;;;;;;4958209;28;20175;-87